This is the latest recevied weather packets stored in our database for station/object SLG. If no packets are shown the sender has not sent any weather packets the latest 10 day(s).
| Time | Temp. | Humidity | Pressure | Rain* | Wind** | Luminosity | Snow |
|---|---|---|---|---|---|---|---|
| 1777289531 | 22.22° C | 29% | 1017.9 hPa | 0 mm | - | - | - |
| 1777287731 | 21.67° C | 32% | 1018 hPa | 0 mm | - | - | - |
| 1777285930 | 20.56° C | 34% | 1018.3 hPa | 0 mm | - | - | - |
| 1777284131 | 20° C | 37% | 1018.4 hPa | 0 mm | - | - | - |
| 1777282330 | 19.44° C | 38% | 1018.7 hPa | 0 mm | - | - | - |
| 1777280533 | 18.33° C | 45% | 1019.1 hPa | 0 mm | - | - | - |
| 1777278731 | 16.67° C | 48% | 1019.2 hPa | 0 mm | - | - | - |
| 1777276931 | 15° C | 52% | 1019.2 hPa | 0 mm | - | - | - |
| 1777275131 | 12.22° C | 59% | 1019.4 hPa | 0 mm | - | - | - |
| 1777273331 | 9.44° C | 68% | 1019.5 hPa | 0 mm | - | - | - |
| 1777271531 | 7.78° C | 76% | 1019.5 hPa | 0 mm | - | - | - |
| 1777269731 | 5.56° C | 86% | 1019.3 hPa | 0 mm | - | - | - |
| 1777267931 | 3.33° C | 84% | 1019.3 hPa | 0 mm | - | - | - |
| 1777266131 | 2.78° C | 82% | 1019.2 hPa | 0 mm | - | - | - |
| 1777264331 | 3.33° C | 80% | 1019.1 hPa | 0 mm | - | - | - |
| 1777262533 | 3.33° C | 80% | 1018.9 hPa | 0 mm | - | - | - |
| 1777260731 | 3.89° C | 79% | 1018.7 hPa | 0 mm | - | - | - |
| 1777258931 | 4.44° C | 76% | 1018.8 hPa | 0 mm | - | - | - |
| 1777257131 | 4.44° C | 74% | 1018.9 hPa | 0 mm | - | - | - |
| 1777255332 | 5.56° C | 74% | 1019 hPa | 0 mm | - | - | - |
| 1777253531 | 5.56° C | 73% | 1019.1 hPa | 0 mm | - | - | - |
| 1777251731 | 6.11° C | 71% | 1019.2 hPa | 0 mm | - | - | - |
| 1777249930 | 6.67° C | 70% | 1019.6 hPa | 0 mm | - | - | - |
| 1777248129 | 7.22° C | 68% | 1019.6 hPa | 0 mm | - | - | - |
| 1777246330 | 7.78° C | 68% | 1019.7 hPa | 0 mm | - | - | - |
* Rain since midnight (hover to see other rain measurements)
** Current wind speed in m/s (hover to see current wind gust speed)